sensor_id;sensor_type;location;lat;lon;timestamp;P1;durP1;ratioP1;P2;durP2;ratioP2
7523;SDS011;3803;51.666;7.630;2023-03-31T00:00:10;3.10;;;2.00;;
7523;SDS011;3803;51.666;7.630;2023-03-31T00:00:32;3.05;;;2.00;;
7523;SDS011;3803;51.666;7.630;2023-03-31T00:00:53;3.00;;;2.00;;
7523;SDS011;3803;51.666;7.630;2023-03-31T00:01:17;3.42;;;2.10;;
7523;SDS011;3803;51.666;7.630;2023-03-31T00:01:38;4.88;;;2.22;;
7523;SDS011;3803;51.666;7.630;2023-03-31T00:02:03;5.40;;;2.40;;
7523;SDS011;3803;51.666;7.630;2023-03-31T00:02:32;5.47;;;2.30;;
7523;SDS011;3803;51.666;7.630;2023-03-31T00:03:41;4.35;;;2.15;;
7523;SDS011;3803;51.666;7.630;2023-03-31T00:04:02;4.15;;;2.00;;
7523;SDS011;3803;51.666;7.630;2023-03-31T00:04:23;3.70;;;2.00;;
7523;SDS011;3803;51.666;7.630;2023-03-31T00:04:45;5.15;;;2.05;;
7523;SDS011;3803;51.666;7.630;2023-03-31T00:05:11;5.15;;;2.13;;
7523;SDS011;3803;51.666;7.630;2023-03-31T00:05:37;4.82;;;2.10;;
7523;SDS011;3803;51.666;7.630;2023-03-31T00:05:57;5.55;;;2.20;;
7523;SDS011;3803;51.666;7.630;2023-03-31T00:06:19;6.07;;;2.20;;
7523;SDS011;3803;51.666;7.630;2023-03-31T00:06:41;4.18;;;2.05;;
7523;SDS011;3803;51.666;7.630;2023-03-31T00:07:01;3.77;;;1.90;;
7523;SDS011;3803;51.666;7.630;2023-03-31T00:07:25;4.63;;;1.98;;
7523;SDS011;3803;51.666;7.630;2023-03-31T00:07:46;4.93;;;2.10;;
7523;SDS011;3803;51.666;7.630;2023-03-31T00:08:09;5.97;;;2.30;;
7523;SDS011;3803;51.666;7.630;2023-03-31T00:08:33;4.90;;;2.30;;
7523;SDS011;3803;51.666;7.630;2023-03-31T00:08:56;5.78;;;2.20;;
7523;SDS011;3803;51.666;7.630;2023-03-31T00:09:21;5.60;;;2.10;;
7523;SDS011;3803;51.666;7.630;2023-03-31T00:09:41;6.00;;;2.03;;
7523;SDS011;3803;51.666;7.630;2023-03-31T00:10:05;5.07;;;2.08;;
7523;SDS011;3803;51.666;7.630;2023-03-31T00:10:27;5.57;;;2.17;;
7523;SDS011;3803;51.666;7.630;2023-03-31T00:10:52;4.65;;;2.05;;
7523;SDS011;3803;51.666;7.630;2023-03-31T00:11:13;4.80;;;2.03;;
7523;SDS011;3803;51.666;7.630;2023-03-31T00:11:33;3.78;;;1.75;;
7523;SDS011;3803;51.666;7.630;2023-03-31T00:11:54;3.40;;;1.90;;
7523;SDS011;3803;51.666;7.630;2023-03-31T00:12:15;3.67;;;2.00;;
7523;SDS011;3803;51.666;7.630;2023-03-31T00:12:36;4.93;;;2.27;;
7523;SDS011;3803;51.666;7.630;2023-03-31T00:12:57;4.80;;;2.20;;
7523;SDS011;3803;51.666;7.630;2023-03-31T00:13:17;6.18;;;2.20;;
7523;SDS011;3803;51.666;7.630;2023-03-31T00:13:38;5.30;;;2.00;;
7523;SDS011;3803;51.666;7.630;2023-03-31T00:13:59;6.05;;;1.90;;
7523;SDS011;3803;51.666;7.630;2023-03-31T00:14:19;4.57;;;1.90;;
7523;SDS011;3803;51.666;7.630;2023-03-31T00:14:41;5.68;;;2.03;;
7523;SDS011;3803;51.666;7.630;2023-03-31T00:15:02;5.30;;;2.20;;
7523;SDS011;3803;51.666;7.630;2023-03-31T00:15:23;4.28;;;2.00;;
7523;SDS011;3803;51.666;7.630;2023-03-31T00:15:44;3.72;;;2.00;;
7523;SDS011;3803;51.666;7.630;2023-03-31T00:16:06;3.60;;;1.80;;
7523;SDS011;3803;51.666;7.630;2023-03-31T00:16:28;4.05;;;1.90;;
7523;SDS011;3803;51.666;7.630;2023-03-31T00:16:48;5.05;;;2.00;;
7523;SDS011;3803;51.666;7.630;2023-03-31T00:17:09;6.17;;;2.20;;
7523;SDS011;3803;51.666;7.630;2023-03-31T00:17:30;5.72;;;2.20;;
7523;SDS011;3803;51.666;7.630;2023-03-31T00:17:52;6.00;;;2.20;;
7523;SDS011;3803;51.666;7.630;2023-03-31T00:18:13;6.75;;;2.20;;
7523;SDS011;3803;51.666;7.630;2023-03-31T00:18:33;6.47;;;2.20;;
7523;SDS011;3803;51.666;7.630;2023-03-31T00:18:54;4.03;;;2.00;;
7523;SDS011;3803;51.666;7.630;2023-03-31T00:19:15;4.35;;;2.10;;
7523;SDS011;3803;51.666;7.630;2023-03-31T00:19:39;4.82;;;2.03;;
7523;SDS011;3803;51.666;7.630;2023-03-31T00:20:00;6.68;;;2.50;;
7523;SDS011;3803;51.666;7.630;2023-03-31T00:20:24;4.15;;;2.10;;
7523;SDS011;3803;51.666;7.630;2023-03-31T00:20:45;4.40;;;2.20;;
7523;SDS011;3803;51.666;7.630;2023-03-31T00:21:06;3.70;;;1.80;;
7523;SDS011;3803;51.666;7.630;2023-03-31T00:21:44;4.25;;;1.80;;
7523;SDS011;3803;51.666;7.630;2023-03-31T00:22:07;5.03;;;2.10;;
7523;SDS011;3803;51.666;7.630;2023-03-31T00:22:28;5.88;;;2.20;;
7523;SDS011;3803;51.666;7.630;2023-03-31T00:22:50;5.43;;;2.20;;
7523;SDS011;3803;51.666;7.630;2023-03-31T00:23:13;4.45;;;2.00;;
7523;SDS011;3803;51.666;7.630;2023-03-31T00:23:34;4.30;;;1.90;;
7523;SDS011;3803;51.666;7.630;2023-03-31T00:23:55;4.53;;;2.15;;
7523;SDS011;3803;51.666;7.630;2023-03-31T00:24:17;4.53;;;2.20;;
7523;SDS011;3803;51.666;7.630;2023-03-31T00:24:38;5.53;;;2.40;;
7523;SDS011;3803;51.666;7.630;2023-03-31T00:24:59;6.80;;;2.40;;
7523;SDS011;3803;51.666;7.630;2023-03-31T00:25:20;6.85;;;2.47;;
7523;SDS011;3803;51.666;7.630;2023-03-31T00:25:40;6.38;;;2.33;;
7523;SDS011;3803;51.666;7.630;2023-03-31T00:26:03;5.53;;;2.20;;
7523;SDS011;3803;51.666;7.630;2023-03-31T00:26:24;6.18;;;2.40;;
7523;SDS011;3803;51.666;7.630;2023-03-31T00:26:45;8.25;;;2.70;;
7523;SDS011;3803;51.666;7.630;2023-03-31T00:27:06;7.97;;;2.50;;
7523;SDS011;3803;51.666;7.630;2023-03-31T00:27:26;7.30;;;2.27;;
7523;SDS011;3803;51.666;7.630;2023-03-31T00:27:47;5.60;;;2.20;;
7523;SDS011;3803;51.666;7.630;2023-03-31T00:28:09;5.82;;;2.40;;
7523;SDS011;3803;51.666;7.630;2023-03-31T00:28:30;5.93;;;2.50;;
7523;SDS011;3803;51.666;7.630;2023-03-31T00:28:51;4.95;;;2.33;;
7523;SDS011;3803;51.666;7.630;2023-03-31T00:29:13;4.55;;;2.00;;
7523;SDS011;3803;51.666;7.630;2023-03-31T00:29:33;3.73;;;2.00;;
7523;SDS011;3803;51.666;7.630;2023-03-31T00:29:55;4.05;;;2.10;;
7523;SDS011;3803;51.666;7.630;2023-03-31T00:30:15;4.40;;;2.30;;
7523;SDS011;3803;51.666;7.630;2023-03-31T00:30:36;5.25;;;2.50;;
7523;SDS011;3803;51.666;7.630;2023-03-31T00:31:00;5.63;;;2.20;;
7523;SDS011;3803;51.666;7.630;2023-03-31T00:31:22;4.75;;;2.08;;
7523;SDS011;3803;51.666;7.630;2023-03-31T00:31:43;4.75;;;1.90;;
7523;SDS011;3803;51.666;7.630;2023-03-31T00:32:04;4.40;;;2.05;;
7523;SDS011;3803;51.666;7.630;2023-03-31T00:32:25;4.33;;;2.10;;
7523;SDS011;3803;51.666;7.630;2023-03-31T00:32:45;4.47;;;2.30;;
7523;SDS011;3803;51.666;7.630;2023-03-31T00:33:06;4.78;;;2.40;;
7523;SDS011;3803;51.666;7.630;2023-03-31T00:33:27;5.00;;;2.20;;
7523;SDS011;3803;51.666;7.630;2023-03-31T00:33:49;4.65;;;2.17;;
7523;SDS011;3803;51.666;7.630;2023-03-31T00:34:10;5.47;;;2.13;;
7523;SDS011;3803;51.666;7.630;2023-03-31T00:34:30;5.50;;;2.30;;
7523;SDS011;3803;51.666;7.630;2023-03-31T00:34:51;6.00;;;2.58;;
7523;SDS011;3803;51.666;7.630;2023-03-31T00:35:12;5.22;;;2.60;;
7523;SDS011;3803;51.666;7.630;2023-03-31T00:35:34;5.57;;;2.57;;
7523;SDS011;3803;51.666;7.630;2023-03-31T00:35:55;4.93;;;2.22;;
7523;SDS011;3803;51.666;7.630;2023-03-31T00:36:16;3.58;;;2.20;;
7523;SDS011;3803;51.666;7.630;2023-03-31T00:36:49;4.10;;;2.20;;
7523;SDS011;3803;51.666;7.630;2023-03-31T00:37:11;4.60;;;2.20;;
7523;SDS011;3803;51.666;7.630;2023-03-31T00:37:35;4.28;;;2.20;;
7523;SDS011;3803;51.666;7.630;2023-03-31T00:37:55;4.10;;;2.30;;
7523;SDS011;3803;51.666;7.630;2023-03-31T00:38:17;3.92;;;2.15;;
7523;SDS011;3803;51.666;7.630;2023-03-31T00:38:41;4.25;;;2.30;;
7523;SDS011;3803;51.666;7.630;2023-03-31T00:39:05;5.07;;;2.30;;
7523;SDS011;3803;51.666;7.630;2023-03-31T00:39:29;3.78;;;2.00;;
7523;SDS011;3803;51.666;7.630;2023-03-31T00:39:54;3.78;;;2.00;;
7523;SDS011;3803;51.666;7.630;2023-03-31T00:40:15;5.28;;;2.38;;
7523;SDS011;3803;51.666;7.630;2023-03-31T00:40:35;5.68;;;2.50;;
7523;SDS011;3803;51.666;7.630;2023-03-31T00:40:56;5.07;;;2.38;;
7523;SDS011;3803;51.666;7.630;2023-03-31T00:41:17;5.18;;;2.50;;
7523;SDS011;3803;51.666;7.630;2023-03-31T00:41:37;5.27;;;2.47;;
7523;SDS011;3803;51.666;7.630;2023-03-31T00:41:58;4.70;;;2.50;;
7523;SDS011;3803;51.666;7.630;2023-03-31T00:42:22;3.03;;;1.98;;
7523;SDS011;3803;51.666;7.630;2023-03-31T00:42:43;2.83;;;2.03;;
7523;SDS011;3803;51.666;7.630;2023-03-31T00:43:07;2.70;;;1.95;;
7523;SDS011;3803;51.666;7.630;2023-03-31T00:44:22;7.93;;;2.30;;
7523;SDS011;3803;51.666;7.630;2023-03-31T00:45:38;5.50;;;2.30;;
7523;SDS011;3803;51.666;7.630;2023-03-31T00:46:03;5.50;;;2.20;;
7523;SDS011;3803;51.666;7.630;2023-03-31T00:46:43;4.60;;;2.10;;
7523;SDS011;3803;51.666;7.630;2023-03-31T00:47:12;5.53;;;2.60;;
7523;SDS011;3803;51.666;7.630;2023-03-31T00:47:39;5.05;;;2.40;;
7523;SDS011;3803;51.666;7.630;2023-03-31T00:48:13;4.45;;;2.17;;
7523;SDS011;3803;51.666;7.630;2023-03-31T00:48:44;5.43;;;2.40;;
7523;SDS011;3803;51.666;7.630;2023-03-31T00:49:11;6.07;;;2.42;;
7523;SDS011;3803;51.666;7.630;2023-03-31T00:49:40;6.00;;;2.25;;
7523;SDS011;3803;51.666;7.630;2023-03-31T00:50:05;4.38;;;1.95;;
7523;SDS011;3803;51.666;7.630;2023-03-31T00:50:49;3.33;;;1.90;;
7523;SDS011;3803;51.666;7.630;2023-03-31T00:51:13;3.47;;;2.10;;
7523;SDS011;3803;51.666;7.630;2023-03-31T00:51:35;3.25;;;1.98;;
7523;SDS011;3803;51.666;7.630;2023-03-31T00:51:57;3.90;;;2.20;;
7523;SDS011;3803;51.666;7.630;2023-03-31T00:52:22;5.05;;;2.53;;
7523;SDS011;3803;51.666;7.630;2023-03-31T00:52:47;6.13;;;2.50;;
7523;SDS011;3803;51.666;7.630;2023-03-31T00:53:15;5.90;;;1.95;;
7523;SDS011;3803;51.666;7.630;2023-03-31T00:53:38;4.65;;;1.60;;
7523;SDS011;3803;51.666;7.630;2023-03-31T00:54:03;4.60;;;1.73;;
7523;SDS011;3803;51.666;7.630;2023-03-31T00:54:27;3.78;;;1.92;;
7523;SDS011;3803;51.666;7.630;2023-03-31T00:54:55;5.10;;;2.20;;
7523;SDS011;3803;51.666;7.630;2023-03-31T00:55:23;5.88;;;2.20;;
7523;SDS011;3803;51.666;7.630;2023-03-31T00:55:51;5.38;;;2.13;;
7523;SDS011;3803;51.666;7.630;2023-03-31T00:56:14;4.90;;;2.00;;
7523;SDS011;3803;51.666;7.630;2023-03-31T00:56:38;4.05;;;1.88;;
7523;SDS011;3803;51.666;7.630;2023-03-31T00:57:01;5.20;;;2.05;;
7523;SDS011;3803;51.666;7.630;2023-03-31T00:57:25;4.68;;;2.10;;
7523;SDS011;3803;51.666;7.630;2023-03-31T00:57:47;4.53;;;2.10;;
7523;SDS011;3803;51.666;7.630;2023-03-31T00:58:12;5.07;;;2.20;;
7523;SDS011;3803;51.666;7.630;2023-03-31T00:58:39;5.13;;;2.28;;
7523;SDS011;3803;51.666;7.630;2023-03-31T00:59:05;5.72;;;2.10;;
7523;SDS011;3803;51.666;7.630;2023-03-31T00:59:30;5.32;;;2.00;;
7523;SDS011;3803;51.666;7.630;2023-03-31T00:59:58;5.28;;;2.20;;
7523;SDS011;3803;51.666;7.630;2023-03-31T01:00:23;5.07;;;2.30;;
7523;SDS011;3803;51.666;7.630;2023-03-31T01:00:43;3.97;;;2.00;;
7523;SDS011;3803;51.666;7.630;2023-03-31T01:01:07;4.18;;;2.00;;
7523;SDS011;3803;51.666;7.630;2023-03-31T01:01:27;4.40;;;1.80;;
7523;SDS011;3803;51.666;7.630;2023-03-31T01:01:49;3.60;;;1.70;;
7523;SDS011;3803;51.666;7.630;2023-03-31T01:02:10;4.43;;;1.80;;
7523;SDS011;3803;51.666;7.630;2023-03-31T01:02:33;4.60;;;1.90;;
7523;SDS011;3803;51.666;7.630;2023-03-31T01:03:01;5.80;;;2.10;;
7523;SDS011;3803;51.666;7.630;2023-03-31T01:03:26;5.32;;;2.03;;
7523;SDS011;3803;51.666;7.630;2023-03-31T01:03:58;4.78;;;2.00;;
7523;SDS011;3803;51.666;7.630;2023-03-31T01:04:19;3.85;;;2.00;;
7523;SDS011;3803;51.666;7.630;2023-03-31T01:04:42;3.28;;;1.92;;
7523;SDS011;3803;51.666;7.630;2023-03-31T01:05:09;3.67;;;2.03;;
7523;SDS011;3803;51.666;7.630;2023-03-31T01:05:38;4.80;;;2.10;;
7523;SDS011;3803;51.666;7.630;2023-03-31T01:06:06;4.80;;;2.10;;
7523;SDS011;3803;51.666;7.630;2023-03-31T01:06:29;4.10;;;1.98;;
7523;SDS011;3803;51.666;7.630;2023-03-31T01:06:53;3.80;;;1.90;;
7523;SDS011;3803;51.666;7.630;2023-03-31T01:07:24;4.43;;;1.80;;
7523;SDS011;3803;51.666;7.630;2023-03-31T01:08:36;5.15;;;2.13;;
7523;SDS011;3803;51.666;7.630;2023-03-31T01:08:57;5.07;;;2.25;;
7523;SDS011;3803;51.666;7.630;2023-03-31T01:09:19;5.32;;;2.40;;
7523;SDS011;3803;51.666;7.630;2023-03-31T01:09:43;5.18;;;2.33;;
7523;SDS011;3803;51.666;7.630;2023-03-31T01:10:08;4.53;;;2.08;;
7523;SDS011;3803;51.666;7.630;2023-03-31T01:10:31;4.57;;;2.00;;
7523;SDS011;3803;51.666;7.630;2023-03-31T01:11:02;6.07;;;2.00;;
7523;SDS011;3803;51.666;7.630;2023-03-31T01:11:26;5.35;;;2.00;;
7523;SDS011;3803;51.666;7.630;2023-03-31T01:11:49;5.00;;;2.10;;
7523;SDS011;3803;51.666;7.630;2023-03-31T01:12:10;4.10;;;2.10;;
7523;SDS011;3803;51.666;7.630;2023-03-31T01:12:31;4.03;;;2.00;;
7523;SDS011;3803;51.666;7.630;2023-03-31T01:12:53;4.93;;;2.10;;
7523;SDS011;3803;51.666;7.630;2023-03-31T01:13:15;5.45;;;2.20;;
7523;SDS011;3803;51.666;7.630;2023-03-31T01:13:37;5.40;;;2.25;;
7523;SDS011;3803;51.666;7.630;2023-03-31T01:14:02;4.03;;;2.05;;
7523;SDS011;3803;51.666;7.630;2023-03-31T01:14:26;3.92;;;2.20;;
7523;SDS011;3803;51.666;7.630;2023-03-31T01:14:47;5.05;;;2.20;;
7523;SDS011;3803;51.666;7.630;2023-03-31T01:15:09;4.85;;;2.00;;
7523;SDS011;3803;51.666;7.630;2023-03-31T01:15:31;4.60;;;2.00;;
7523;SDS011;3803;51.666;7.630;2023-03-31T01:15:51;4.03;;;2.00;;
7523;SDS011;3803;51.666;7.630;2023-03-31T01:16:13;3.33;;;2.00;;
7523;SDS011;3803;51.666;7.630;2023-03-31T01:16:33;3.55;;;1.90;;
7523;SDS011;3803;51.666;7.630;2023-03-31T01:16:54;3.73;;;1.80;;
7523;SDS011;3803;51.666;7.630;2023-03-31T01:17:15;3.63;;;1.80;;
7523;SDS011;3803;51.666;7.630;2023-03-31T01:17:38;3.28;;;1.77;;
7523;SDS011;3803;51.666;7.630;2023-03-31T01:18:04;3.50;;;1.80;;
7523;SDS011;3803;51.666;7.630;2023-03-31T01:18:26;4.45;;;2.00;;
7523;SDS011;3803;51.666;7.630;2023-03-31T01:18:48;4.25;;;2.00;;
7523;SDS011;3803;51.666;7.630;2023-03-31T01:19:17;4.32;;;2.25;;
7523;SDS011;3803;51.666;7.630;2023-03-31T01:21:45;4.35;;;1.90;;
7523;SDS011;3803;51.666;7.630;2023-03-31T01:22:52;5.00;;;2.17;;
7523;SDS011;3803;51.666;7.630;2023-03-31T01:28:58;5.18;;;2.10;;
7523;SDS011;3803;51.666;7.630;2023-03-31T01:30:17;4.05;;;2.00;;
7523;SDS011;3803;51.666;7.630;2023-03-31T01:33:59;4.18;;;1.90;;
7523;SDS011;3803;51.666;7.630;2023-03-31T01:37:29;5.43;;;2.17;;
7523;SDS011;3803;51.666;7.630;2023-03-31T01:39:13;3.78;;;2.00;;
7523;SDS011;3803;51.666;7.630;2023-03-31T01:40:49;3.63;;;2.08;;
7523;SDS011;3803;51.666;7.630;2023-03-31T01:41:29;3.95;;;2.40;;
7523;SDS011;3803;51.666;7.630;2023-03-31T01:42:34;4.43;;;2.00;;
7523;SDS011;3803;51.666;7.630;2023-03-31T01:45:25;7.53;;;2.10;;
7523;SDS011;3803;51.666;7.630;2023-03-31T01:46:35;6.53;;;2.00;;
7523;SDS011;3803;51.666;7.630;2023-03-31T01:47:34;7.03;;;2.17;;
7523;SDS011;3803;51.666;7.630;2023-03-31T01:48:01;6.43;;;2.10;;
7523;SDS011;3803;51.666;7.630;2023-03-31T01:48:43;5.90;;;2.20;;
7523;SDS011;3803;51.666;7.630;2023-03-31T01:49:23;6.10;;;2.10;;
7523;SDS011;3803;51.666;7.630;2023-03-31T01:49:56;3.70;;;1.80;;
7523;SDS011;3803;51.666;7.630;2023-03-31T01:50:55;4.60;;;2.00;;
7523;SDS011;3803;51.666;7.630;2023-03-31T01:51:21;6.40;;;2.40;;
7523;SDS011;3803;51.666;7.630;2023-03-31T01:52:05;5.55;;;2.40;;
7523;SDS011;3803;51.666;7.630;2023-03-31T01:52:47;4.80;;;2.30;;
7523;SDS011;3803;51.666;7.630;2023-03-31T01:53:19;6.10;;;2.25;;
7523;SDS011;3803;51.666;7.630;2023-03-31T01:54:44;5.40;;;2.15;;
7523;SDS011;3803;51.666;7.630;2023-03-31T01:55:16;4.20;;;2.00;;
7523;SDS011;3803;51.666;7.630;2023-03-31T01:55:45;4.28;;;2.10;;
7523;SDS011;3803;51.666;7.630;2023-03-31T01:56:12;4.28;;;1.83;;
7523;SDS011;3803;51.666;7.630;2023-03-31T01:56:54;4.13;;;1.88;;
7523;SDS011;3803;51.666;7.630;2023-03-31T01:57:21;3.85;;;1.70;;
7523;SDS011;3803;51.666;7.630;2023-03-31T01:57:52;4.97;;;1.90;;
7523;SDS011;3803;51.666;7.630;2023-03-31T01:58:22;4.95;;;2.30;;
7523;SDS011;3803;51.666;7.630;2023-03-31T01:58:53;5.05;;;2.30;;
7523;SDS011;3803;51.666;7.630;2023-03-31T02:00:33;3.67;;;1.67;;
7523;SDS011;3803;51.666;7.630;2023-03-31T02:01:04;3.00;;;1.83;;
7523;SDS011;3803;51.666;7.630;2023-03-31T02:02:12;3.78;;;1.83;;
7523;SDS011;3803;51.666;7.630;2023-03-31T02:02:24;3.63;;;2.00;;
7523;SDS011;3803;51.666;7.630;2023-03-31T02:02:52;4.57;;;2.30;;
7523;SDS011;3803;51.666;7.630;2023-03-31T02:03:20;4.25;;;2.10;;
7523;SDS011;3803;51.666;7.630;2023-03-31T02:03:55;4.82;;;1.95;;
7523;SDS011;3803;51.666;7.630;2023-03-31T02:05:21;5.85;;;2.20;;
7523;SDS011;3803;51.666;7.630;2023-03-31T02:05:50;3.83;;;2.05;;
7523;SDS011;3803;51.666;7.630;2023-03-31T02:06:16;4.50;;;1.88;;
7523;SDS011;3803;51.666;7.630;2023-03-31T02:06:42;5.15;;;1.80;;
7523;SDS011;3803;51.666;7.630;2023-03-31T02:07:13;5.00;;;1.92;;
7523;SDS011;3803;51.666;7.630;2023-03-31T02:07:40;5.30;;;2.30;;
7523;SDS011;3803;51.666;7.630;2023-03-31T02:08:12;6.28;;;2.30;;
7523;SDS011;3803;51.666;7.630;2023-03-31T02:08:57;5.50;;;2.10;;
7523;SDS011;3803;51.666;7.630;2023-03-31T02:09:22;5.65;;;2.40;;
7523;SDS011;3803;51.666;7.630;2023-03-31T02:09:50;6.38;;;2.40;;
7523;SDS011;3803;51.666;7.630;2023-03-31T02:10:15;6.93;;;2.50;;
7523;SDS011;3803;51.666;7.630;2023-03-31T02:10:39;7.18;;;2.60;;
7523;SDS011;3803;51.666;7.630;2023-03-31T02:11:03;5.93;;;2.38;;
7523;SDS011;3803;51.666;7.630;2023-03-31T02:11:23;5.97;;;2.53;;
7523;SDS011;3803;51.666;7.630;2023-03-31T02:11:45;5.60;;;2.42;;
7523;SDS011;3803;51.666;7.630;2023-03-31T02:12:09;6.05;;;2.40;;
7523;SDS011;3803;51.666;7.630;2023-03-31T02:12:31;5.45;;;2.35;;
7523;SDS011;3803;51.666;7.630;2023-03-31T02:12:54;4.60;;;2.20;;
7523;SDS011;3803;51.666;7.630;2023-03-31T02:13:16;6.68;;;2.30;;
7523;SDS011;3803;51.666;7.630;2023-03-31T02:13:38;6.32;;;2.10;;
7523;SDS011;3803;51.666;7.630;2023-03-31T02:14:04;7.90;;;2.10;;
7523;SDS011;3803;51.666;7.630;2023-03-31T02:14:29;6.63;;;2.35;;
7523;SDS011;3803;51.666;7.630;2023-03-31T02:14:52;6.85;;;2.60;;
7523;SDS011;3803;51.666;7.630;2023-03-31T02:15:18;5.90;;;2.50;;
7523;SDS011;3803;51.666;7.630;2023-03-31T02:15:43;6.28;;;2.13;;
7523;SDS011;3803;51.666;7.630;2023-03-31T02:16:08;4.88;;;2.10;;
7523;SDS011;3803;51.666;7.630;2023-03-31T02:16:33;3.00;;;2.10;;
7523;SDS011;3803;51.666;7.630;2023-03-31T02:17:00;4.20;;;2.05;;
7523;SDS011;3803;51.666;7.630;2023-03-31T02:17:24;5.85;;;2.45;;
7523;SDS011;3803;51.666;7.630;2023-03-31T02:17:54;5.85;;;2.40;;
7523;SDS011;3803;51.666;7.630;2023-03-31T02:18:18;7.20;;;2.45;;
7523;SDS011;3803;51.666;7.630;2023-03-31T02:18:45;7.07;;;2.42;;
7523;SDS011;3803;51.666;7.630;2023-03-31T02:19:07;5.82;;;2.50;;
7523;SDS011;3803;51.666;7.630;2023-03-31T02:19:37;6.22;;;2.30;;
7523;SDS011;3803;51.666;7.630;2023-03-31T02:20:00;5.70;;;2.50;;
7523;SDS011;3803;51.666;7.630;2023-03-31T02:20:26;5.43;;;2.63;;
7523;SDS011;3803;51.666;7.630;2023-03-31T02:20:48;5.70;;;2.50;;
7523;SDS011;3803;51.666;7.630;2023-03-31T02:21:13;5.40;;;2.15;;
7523;SDS011;3803;51.666;7.630;2023-03-31T02:21:37;5.53;;;2.17;;
7523;SDS011;3803;51.666;7.630;2023-03-31T02:22:00;5.20;;;2.40;;
7523;SDS011;3803;51.666;7.630;2023-03-31T02:22:22;5.55;;;2.42;;
7523;SDS011;3803;51.666;7.630;2023-03-31T02:22:47;6.63;;;2.38;;
7523;SDS011;3803;51.666;7.630;2023-03-31T02:23:12;5.50;;;2.20;;
7523;SDS011;3803;51.666;7.630;2023-03-31T02:23:37;5.72;;;2.15;;
7523;SDS011;3803;51.666;7.630;2023-03-31T02:24:03;7.85;;;2.40;;
7523;SDS011;3803;51.666;7.630;2023-03-31T02:24:28;7.13;;;2.50;;
7523;SDS011;3803;51.666;7.630;2023-03-31T02:24:52;5.82;;;2.45;;
7523;SDS011;3803;51.666;7.630;2023-03-31T02:25:15;5.78;;;2.65;;
7523;SDS011;3803;51.666;7.630;2023-03-31T02:25:41;5.22;;;2.80;;
7523;SDS011;3803;51.666;7.630;2023-03-31T02:26:09;5.97;;;2.80;;
7523;SDS011;3803;51.666;7.630;2023-03-31T02:26:41;8.00;;;2.78;;
7523;SDS011;3803;51.666;7.630;2023-03-31T02:27:14;9.63;;;2.80;;
7523;SDS011;3803;51.666;7.630;2023-03-31T02:27:43;7.13;;;2.80;;
7523;SDS011;3803;51.666;7.630;2023-03-31T02:28:11;9.00;;;2.97;;
7523;SDS011;3803;51.666;7.630;2023-03-31T02:28:37;9.45;;;2.80;;
7523;SDS011;3803;51.666;7.630;2023-03-31T02:28:59;9.27;;;2.60;;
7523;SDS011;3803;51.666;7.630;2023-03-31T02:29:19;6.45;;;2.70;;
7523;SDS011;3803;51.666;7.630;2023-03-31T02:29:40;4.72;;;2.70;;
7523;SDS011;3803;51.666;7.630;2023-03-31T02:30:02;6.55;;;2.92;;
7523;SDS011;3803;51.666;7.630;2023-03-31T02:30:25;7.25;;;2.90;;
7523;SDS011;3803;51.666;7.630;2023-03-31T02:31:01;6.80;;;2.80;;
7523;SDS011;3803;51.666;7.630;2023-03-31T02:32:23;6.10;;;2.85;;
7523;SDS011;3803;51.666;7.630;2023-03-31T02:32:52;4.90;;;2.50;;
7523;SDS011;3803;51.666;7.630;2023-03-31T02:33:14;6.28;;;2.88;;
7523;SDS011;3803;51.666;7.630;2023-03-31T02:33:35;5.70;;;2.70;;
7523;SDS011;3803;51.666;7.630;2023-03-31T02:33:58;5.85;;;2.55;;
7523;SDS011;3803;51.666;7.630;2023-03-31T02:34:18;6.15;;;2.50;;
7523;SDS011;3803;51.666;7.630;2023-03-31T02:34:40;5.40;;;2.40;;
7523;SDS011;3803;51.666;7.630;2023-03-31T02:35:02;5.47;;;2.50;;
7523;SDS011;3803;51.666;7.630;2023-03-31T02:35:23;5.20;;;2.50;;
7523;SDS011;3803;51.666;7.630;2023-03-31T02:35:44;6.93;;;2.83;;
7523;SDS011;3803;51.666;7.630;2023-03-31T02:36:05;6.38;;;2.80;;
7523;SDS011;3803;51.666;7.630;2023-03-31T02:36:26;6.00;;;2.70;;
7523;SDS011;3803;51.666;7.630;2023-03-31T02:36:47;6.03;;;2.67;;
7523;SDS011;3803;51.666;7.630;2023-03-31T02:37:09;7.53;;;2.70;;
7523;SDS011;3803;51.666;7.630;2023-03-31T02:37:30;8.07;;;2.75;;
7523;SDS011;3803;51.666;7.630;2023-03-31T02:37:51;7.80;;;2.75;;
7523;SDS011;3803;51.666;7.630;2023-03-31T02:38:12;8.07;;;3.03;;
7523;SDS011;3803;51.666;7.630;2023-03-31T02:38:35;6.90;;;2.80;;
7523;SDS011;3803;51.666;7.630;2023-03-31T02:39:04;6.18;;;2.55;;
7523;SDS011;3803;51.666;7.630;2023-03-31T02:39:30;5.93;;;2.30;;
7523;SDS011;3803;51.666;7.630;2023-03-31T02:39:54;7.28;;;2.50;;
7523;SDS011;3803;51.666;7.630;2023-03-31T02:40:18;5.82;;;2.58;;
7523;SDS011;3803;51.666;7.630;2023-03-31T02:40:41;5.63;;;2.42;;
7523;SDS011;3803;51.666;7.630;2023-03-31T02:41:01;6.65;;;2.60;;
7523;SDS011;3803;51.666;7.630;2023-03-31T02:41:22;5.80;;;2.60;;
7523;SDS011;3803;51.666;7.630;2023-03-31T02:41:43;5.47;;;2.73;;
7523;SDS011;3803;51.666;7.630;2023-03-31T02:42:04;5.22;;;2.67;;
7523;SDS011;3803;51.666;7.630;2023-03-31T02:42:28;5.68;;;2.50;;
7523;SDS011;3803;51.666;7.630;2023-03-31T02:42:48;7.20;;;2.53;;
7523;SDS011;3803;51.666;7.630;2023-03-31T02:43:09;8.57;;;2.85;;
7523;SDS011;3803;51.666;7.630;2023-03-31T02:43:30;9.00;;;3.10;;
7523;SDS011;3803;51.666;7.630;2023-03-31T02:43:51;7.57;;;3.20;;
7523;SDS011;3803;51.666;7.630;2023-03-31T02:45:02;4.97;;;2.63;;
7523;SDS011;3803;51.666;7.630;2023-03-31T02:45:38;4.22;;;2.60;;
7523;SDS011;3803;51.666;7.630;2023-03-31T02:45:59;6.70;;;3.10;;
7523;SDS011;3803;51.666;7.630;2023-03-31T02:46:20;7.25;;;3.10;;
7523;SDS011;3803;51.666;7.630;2023-03-31T02:46:40;5.68;;;2.75;;
7523;SDS011;3803;51.666;7.630;2023-03-31T02:47:02;5.78;;;2.90;;
7523;SDS011;3803;51.666;7.630;2023-03-31T02:47:27;6.78;;;2.90;;
7523;SDS011;3803;51.666;7.630;2023-03-31T02:47:48;5.53;;;2.90;;
7523;SDS011;3803;51.666;7.630;2023-03-31T02:48:12;7.45;;;3.20;;
7523;SDS011;3803;51.666;7.630;2023-03-31T02:48:38;8.20;;;3.20;;
7523;SDS011;3803;51.666;7.630;2023-03-31T02:49:07;7.82;;;3.00;;
7523;SDS011;3803;51.666;7.630;2023-03-31T02:49:30;7.05;;;3.20;;
7523;SDS011;3803;51.666;7.630;2023-03-31T02:49:52;6.60;;;3.20;;
7523;SDS011;3803;51.666;7.630;2023-03-31T02:50:19;8.63;;;3.00;;
7523;SDS011;3803;51.666;7.630;2023-03-31T02:52:59;7.47;;;2.80;;
7523;SDS011;3803;51.666;7.630;2023-03-31T02:55:22;7.35;;;3.03;;
7523;SDS011;3803;51.666;7.630;2023-03-31T02:55:56;6.45;;;3.00;;
7523;SDS011;3803;51.666;7.630;2023-03-31T02:57:18;6.60;;;2.90;;
7523;SDS011;3803;51.666;7.630;2023-03-31T03:01:31;7.45;;;3.10;;
7523;SDS011;3803;51.666;7.630;2023-03-31T03:03:55;9.05;;;2.90;;
7523;SDS011;3803;51.666;7.630;2023-03-31T03:06:03;8.50;;;3.10;;
7523;SDS011;3803;51.666;7.630;2023-03-31T03:06:58;5.70;;;2.60;;
7523;SDS011;3803;51.666;7.630;2023-03-31T03:09:09;7.18;;;2.63;;
7523;SDS011;3803;51.666;7.630;2023-03-31T03:09:32;8.23;;;2.97;;
7523;SDS011;3803;51.666;7.630;2023-03-31T03:09:58;8.68;;;3.60;;
7523;SDS011;3803;51.666;7.630;2023-03-31T03:10:23;7.57;;;3.35;;
7523;SDS011;3803;51.666;7.630;2023-03-31T03:11:51;7.53;;;3.38;;
7523;SDS011;3803;51.666;7.630;2023-03-31T03:12:24;6.95;;;3.30;;
7523;SDS011;3803;51.666;7.630;2023-03-31T03:13:08;8.60;;;3.08;;
7523;SDS011;3803;51.666;7.630;2023-03-31T03:15:12;7.30;;;2.92;;
7523;SDS011;3803;51.666;7.630;2023-03-31T03:15:44;8.18;;;3.13;;
7523;SDS011;3803;51.666;7.630;2023-03-31T03:16:52;4.63;;;2.40;;
7523;SDS011;3803;51.666;7.630;2023-03-31T03:17:27;7.30;;;2.72;;
7523;SDS011;3803;51.666;7.630;2023-03-31T03:17:54;9.93;;;3.28;;
7523;SDS011;3803;51.666;7.630;2023-03-31T03:18:16;9.48;;;3.22;;
7523;SDS011;3803;51.666;7.630;2023-03-31T03:18:36;9.02;;;3.28;;
7523;SDS011;3803;51.666;7.630;2023-03-31T03:19:00;10.60;;;3.42;;
7523;SDS011;3803;51.666;7.630;2023-03-31T03:19:23;10.25;;;3.30;;
7523;SDS011;3803;51.666;7.630;2023-03-31T03:19:49;7.70;;;3.08;;
7523;SDS011;3803;51.666;7.630;2023-03-31T03:20:12;4.90;;;2.78;;
7523;SDS011;3803;51.666;7.630;2023-03-31T03:20:35;4.68;;;2.60;;
7523;SDS011;3803;51.666;7.630;2023-03-31T03:20:55;4.87;;;2.67;;
7523;SDS011;3803;51.666;7.630;2023-03-31T03:21:16;7.88;;;3.20;;
7523;SDS011;3803;51.666;7.630;2023-03-31T03:21:37;11.02;;;3.60;;
7523;SDS011;3803;51.666;7.630;2023-03-31T03:21:58;12.52;;;3.70;;